Time;durP1;ratioP1;P1;durP2;ratioP2;P2;SDS_P1;SDS_P2;PMS_P1;PMS_P2;Temp;Humidity;BMP_temperature;BMP_pressure;BME280_temperature;BME280_humidity;BME280_pressure;Samples;Min_cycle;Max_cycle;Signal;HPM_P1;HPM_P2
2022/06/01 00:01:34;;;;;;;4.43;2.20;;;;;;;12.38;100.00;96009.50;5030902;28;20042;-81
2022/06/01 00:04:00;;;;;;;5.63;2.53;;;;;;;12.27;100.00;96015.19;5016978;28;20034;-81
2022/06/01 00:06:26;;;;;;;6.53;2.50;;;;;;;12.23;100.00;96022.63;5007177;28;20044;-82
2022/06/01 00:08:52;;;;;;;4.23;2.30;;;;;;;12.10;100.00;96024.19;5053242;28;20033;-81
2022/06/01 00:11:18;;;;;;;3.87;2.13;;;;;;;11.81;100.00;96025.63;5034681;28;20029;-81
2022/06/01 00:13:44;;;;;;;4.53;2.20;;;;;;;11.65;100.00;96020.44;5036177;28;20091;-81
2022/06/01 00:16:10;;;;;;;4.80;2.73;;;;;;;11.77;100.00;96030.44;5027440;28;20030;-81
2022/06/01 00:18:36;;;;;;;6.57;2.43;;;;;;;11.67;100.00;96024.56;5009040;28;20420;-80
2022/06/01 00:21:03;;;;;;;5.73;2.77;;;;;;;11.71;100.00;96022.38;5032228;28;20029;-81
2022/06/01 00:23:29;;;;;;;5.10;2.67;;;;;;;11.80;100.00;96019.56;5041089;28;20026;-81
2022/06/01 00:25:55;;;;;;;5.87;2.60;;;;;;;11.80;100.00;96016.91;5030702;28;20010;-81
2022/06/01 00:28:21;;;;;;;3.33;2.20;;;;;;;11.76;100.00;96012.16;5040822;28;20065;-81
2022/06/01 00:30:47;;;;;;;6.07;2.53;;;;;;;11.74;100.00;96007.06;5040956;28;20033;-81
2022/06/01 00:33:13;;;;;;;4.87;2.43;;;;;;;11.74;100.00;96014.16;5041492;28;20046;-81
2022/06/01 00:35:38;;;;;;;4.43;2.40;;;;;;;11.77;100.00;96011.19;5016700;28;20026;-81
2022/06/01 00:38:04;;;;;;;6.20;2.53;;;;;;;11.63;100.00;96009.25;5038112;28;20025;-81
2022/06/01 00:40:31;;;;;;;6.20;2.80;;;;;;;11.68;100.00;96009.56;5027503;28;20066;-81
2022/06/01 00:42:59;;;;;;;6.07;2.57;;;;;;;11.63;100.00;96012.69;5042403;28;20097;-81
2022/06/01 00:45:28;;;;;;;5.03;2.07;;;;;;;11.66;100.00;96003.63;5023415;28;20056;-81
2022/06/01 00:47:54;;;;;;;6.70;2.47;;;;;;;11.66;100.00;96012.34;5022350;28;20057;-81
2022/06/01 00:50:36;;;;;;;4.93;2.13;;;;;;;11.72;100.00;96008.22;5045060;28;20029;-81
2022/06/01 00:53:07;;;;;;;6.83;2.93;;;;;;;11.63;100.00;96012.69;5037172;28;20042;-81
2022/06/01 00:56:14;;;;;;;4.10;2.60;;;;;;;11.68;100.00;96014.84;5012517;28;20052;-82
2022/06/01 00:58:44;;;;;;;5.63;2.93;;;;;;;11.64;100.00;96013.53;5016234;28;20038;-81
2022/06/01 01:01:16;;;;;;;6.60;3.27;;;;;;;11.59;100.00;96006.13;5058795;28;20033;-81
2022/06/01 01:03:45;;;;;;;4.43;2.47;;;;;;;11.51;100.00;96009.63;5020877;28;20068;-81
2022/06/01 01:06:25;;;;;;;7.40;2.80;;;;;;;11.34;100.00;96018.56;5057488;28;20034;-81
2022/06/01 01:08:51;;;;;;;4.23;2.73;;;;;;;11.30;100.00;96022.50;5047545;28;20067;-81
2022/06/01 01:11:21;;;;;;;3.57;2.30;;;;;;;11.18;100.00;96018.63;5048329;28;20061;-81
2022/06/01 01:13:50;;;;;;;5.67;3.07;;;;;;;11.39;100.00;96026.78;5027039;28;20065;-81
2022/06/01 01:16:17;;;;;;;7.50;3.23;;;;;;;11.40;100.00;96020.53;5040266;28;20029;-81
2022/06/01 01:18:45;;;;;;;5.47;2.67;;;;;;;11.45;100.00;96020.84;5030549;28;20119;-82
2022/06/01 01:21:50;;;;;;;4.93;2.50;;;;;;;11.39;100.00;96018.88;5028163;28;20530;-81
2022/06/01 01:24:25;;;;;;;6.33;2.93;;;;;;;11.43;100.00;96024.63;5024402;28;20034;-81
2022/06/01 01:26:52;;;;;;;4.83;2.80;;;;;;;11.37;100.00;96025.28;5021960;28;20061;-83
2022/06/01 01:29:41;;;;;;;6.93;2.80;;;;;;;11.28;100.00;96020.06;5031188;28;20053;-82
2022/06/01 01:32:09;;;;;;;5.33;2.90;;;;;;;11.20;100.00;96014.84;5042666;28;20064;-81
2022/06/01 01:34:39;;;;;;;6.70;2.93;;;;;;;11.13;100.00;96016.47;5021153;28;20089;-81
2022/06/01 01:37:10;;;;;;;5.77;2.70;;;;;;;11.14;100.00;96018.13;5022764;28;20060;-81
2022/06/01 01:39:37;;;;;;;5.70;2.70;;;;;;;11.22;100.00;96012.84;5043965;28;20025;-81
2022/06/01 01:42:06;;;;;;;6.10;2.90;;;;;;;11.31;100.00;96013.63;5023732;28;20026;-81
2022/06/01 01:44:49;;;;;;;6.43;3.37;;;;;;;11.32;100.00;96005.56;5035657;28;20037;-80
2022/06/01 01:47:15;;;;;;;8.18;3.08;;;;;;;11.36;100.00;95999.97;5018904;28;20083;-81
2022/06/01 01:49:41;;;;;;;5.30;3.27;;;;;;;11.39;100.00;96003.06;5040592;28;20037;-81
2022/06/01 01:52:11;;;;;;;6.70;3.20;;;;;;;11.36;100.00;95999.97;5041941;28;20040;-81
2022/06/01 01:54:54;;;;;;;8.90;3.67;;;;;;;11.38;100.00;96008.53;5023857;28;20080;-81
2022/06/01 01:57:47;;;;;;;5.82;3.20;;;;;;;11.43;100.00;96011.44;5032651;28;20096;-82
2022/06/01 02:00:14;;;;;;;6.80;2.97;;;;;;;11.49;100.00;96011.59;5020174;28;20071;-81
2022/06/01 02:02:52;;;;;;;6.53;3.50;;;;;;;11.54;100.00;96009.28;5023099;28;20909;-82
2022/06/01 02:08:28;;;;;;;7.00;3.13;;;;;;;11.46;100.00;96005.84;5034181;28;20059;-82
2022/06/01 02:14:07;;;;;;;5.53;2.22;;;;;;;11.42;100.00;96001.91;5031811;28;20034;-82
2022/06/01 02:16:39;;;;;;;5.93;3.00;;;;;;;11.29;100.00;96011.16;5025536;28;20042;-82
2022/06/01 02:19:11;;;;;;;7.03;3.50;;;;;;;11.26;100.00;96011.50;5010410;28;20465;-82
2022/06/01 02:21:36;;;;;;;8.07;3.33;;;;;;;11.08;100.00;96009.09;5018252;28;20030;-81
2022/06/01 02:24:03;;;;;;;7.83;3.17;;;;;;;11.12;100.00;96004.31;5040069;28;20040;-82
2022/06/01 02:26:29;;;;;;;7.80;2.70;;;;;;;10.96;100.00;96005.16;5006460;28;20026;-81
2022/06/01 02:29:14;;;;;;;6.60;3.43;;;;;;;10.85;100.00;96008.94;5036460;28;20026;-81
2022/06/01 02:31:41;;;;;;;6.87;3.37;;;;;;;10.85;100.00;96014.22;5014122;28;20030;-81
2022/06/01 02:34:09;;;;;;;7.87;3.43;;;;;;;10.81;100.00;96014.72;5025791;28;20048;-82
2022/06/01 02:36:38;;;;;;;9.33;3.33;;;;;;;10.64;100.00;96023.63;5026410;28;20137;-81
2022/06/01 02:39:07;;;;;;;7.53;3.30;;;;;;;10.49;100.00;96020.78;5025425;28;20034;-81
2022/06/01 02:44:19;;;;;;;7.73;3.67;;;;;;;10.48;100.00;96006.03;5031596;28;20363;-81
2022/06/01 02:46:45;;;;;;;6.87;3.70;;;;;;;10.49;100.00;96013.72;5018354;28;20109;-81
2022/06/01 02:49:11;;;;;;;6.70;3.77;;;;;;;10.50;100.00;96025.91;5003114;28;20061;-81
2022/06/01 02:51:37;;;;;;;6.87;3.40;;;;;;;10.41;100.00;96026.06;5022859;28;20041;-82
2022/06/01 02:54:03;;;;;;;6.73;3.60;;;;;;;10.40;100.00;96020.00;5019558;28;20052;-81
2022/06/01 02:56:28;;;;;;;7.83;3.30;;;;;;;10.50;100.00;96015.41;5027616;28;20041;-82
2022/06/01 02:58:54;;;;;;;6.47;3.73;;;;;;;10.49;100.00;96024.25;5007499;28;20034;-81
2022/06/01 03:01:20;;;;;;;11.77;4.33;;;;;;;10.44;100.00;96023.94;5006838;28;20037;-82
2022/06/01 03:03:47;;;;;;;8.13;4.00;;;;;;;10.31;100.00;96019.16;5022562;28;20035;-81
2022/06/01 03:06:14;;;;;;;7.43;3.53;;;;;;;10.26;100.00;96015.34;5008010;28;20025;-82
2022/06/01 03:08:41;;;;;;;7.10;3.67;;;;;;;10.04;100.00;96025.47;5020367;28;20038;-81
2022/06/01 03:11:07;;;;;;;6.20;3.67;;;;;;;9.95;100.00;96023.81;5033249;28;20027;-81
2022/06/01 03:13:33;;;;;;;9.23;4.00;;;;;;;9.99;100.00;96025.13;5054833;28;20097;-82
2022/06/01 03:15:58;;;;;;;5.67;3.53;;;;;;;9.92;100.00;96016.25;5025435;28;20085;-82
2022/06/01 03:18:24;;;;;;;9.63;3.30;;;;;;;10.00;100.00;96016.28;5017181;28;20084;-81
2022/06/01 03:20:50;;;;;;;6.70;3.47;;;;;;;9.98;100.00;96023.50;5013660;28;20021;-81
2022/06/01 03:23:16;;;;;;;7.47;4.10;;;;;;;9.98;100.00;96020.88;5018709;28;20045;-81
2022/06/01 03:25:42;;;;;;;7.00;3.23;;;;;;;9.96;100.00;96022.00;5018280;28;20065;-81
2022/06/01 03:28:08;;;;;;;5.70;2.93;;;;;;;9.96;100.00;96022.00;5013366;28;20038;-81
2022/06/01 03:30:34;;;;;;;5.93;3.10;;;;;;;10.02;100.00;96032.69;5013218;28;20049;-81
2022/06/01 03:33:00;;;;;;;8.53;3.70;;;;;;;10.04;100.00;96025.47;5014064;28;20044;-82
2022/06/01 03:35:30;;;;;;;7.70;3.00;;;;;;;10.04;100.00;96028.09;5016449;28;20038;-81
2022/06/01 03:37:59;;;;;;;4.93;3.00;;;;;;;10.04;100.00;96029.91;5022042;28;20025;-81
2022/06/01 03:40:27;;;;;;;5.87;3.03;;;;;;;10.05;100.00;96027.13;5020848;28;20132;-81
2022/06/01 03:42:53;;;;;;;5.40;2.97;;;;;;;10.05;100.00;96024.50;5002326;28;20058;-81
2022/06/01 03:48:03;;;;;;;8.90;3.27;;;;;;;10.09;100.00;96027.63;5034433;28;20034;-82
2022/06/01 03:50:30;;;;;;;6.73;3.10;;;;;;;10.04;100.00;96029.91;5021610;28;20398;-81
2022/06/01 03:52:56;;;;;;;6.63;3.00;;;;;;;10.09;100.00;96031.09;5026626;28;20496;-82
2022/06/01 03:55:22;;;;;;;6.67;3.13;;;;;;;10.15;100.00;96033.03;5010447;28;20116;-82
2022/06/01 03:57:48;;;;;;;7.47;3.47;;;;;;;10.08;100.00;96036.50;5012821;28;20038;-82
2022/06/01 04:00:20;;;;;;;6.87;2.93;;;;;;;10.10;100.00;96037.97;5034896;28;20045;-81
2022/06/01 04:02:47;;;;;;;6.47;3.00;;;;;;;10.10;100.00;96045.88;5003088;28;20037;-82
2022/06/01 04:05:13;;;;;;;4.97;2.67;;;;;;;10.17;100.00;96035.53;5008127;28;20034;-81
2022/06/01 04:07:39;;;;;;;7.60;3.50;;;;;;;10.10;100.00;96030.09;5013984;28;20029;-82
2022/06/01 04:10:05;;;;;;;5.97;2.93;;;;;;;10.25;100.00;96040.78;5029001;28;20037;-81
2022/06/01 04:12:31;;;;;;;6.67;3.53;;;;;;;10.23;100.00;96032.25;5011566;28;20030;-82
2022/06/01 04:14:57;;;;;;;5.77;3.00;;;;;;;10.20;100.00;96040.47;5038966;28;20033;-82
2022/06/01 04:17:22;;;;;;;8.00;3.87;;;;;;;10.26;100.00;96033.75;5038119;28;20668;-82
2022/06/01 04:19:48;;;;;;;5.67;3.43;;;;;;;10.29;100.00;96038.69;5014644;28;20026;-82
2022/06/01 04:22:15;;;;;;;9.47;4.10;;;;;;;10.34;100.00;96036.41;5015047;28;20030;-81
2022/06/01 04:24:41;;;;;;;7.80;3.30;;;;;;;10.27;100.00;96045.94;5022974;28;20084;-83
2022/06/01 04:27:07;;;;;;;7.13;3.40;;;;;;;10.25;100.00;96047.84;5027764;28;20110;-82
2022/06/01 04:29:34;;;;;;;5.60;3.13;;;;;;;10.49;100.00;96050.53;5022468;28;20116;-79
2022/06/01 04:32:10;;;;;;;6.60;4.00;;;;;;;10.41;100.00;96047.09;5032012;28;20023;-79
2022/06/01 04:34:36;;;;;;;6.90;3.10;;;;;;;10.59;100.00;96042.50;5040906;28;20026;-80
2022/06/01 04:37:02;;;;;;;6.23;3.20;;;;;;;10.62;100.00;96044.78;5029054;28;20113;-79
2022/06/01 04:39:28;;;;;;;6.40;3.60;;;;;;;10.68;100.00;96054.66;5025175;28;20151;-79
2022/06/01 04:41:54;;;;;;;7.30;3.23;;;;;;;10.91;100.00;96046.94;5034606;28;20099;-79
2022/06/01 04:44:20;;;;;;;7.33;3.43;;;;;;;10.93;100.00;96047.59;5021683;28;20034;-80
2022/06/01 04:46:46;;;;;;;4.77;3.23;;;;;;;10.98;100.00;96053.19;5004253;28;20076;-79
2022/06/01 04:49:12;;;;;;;6.20;3.40;;;;;;;11.15;100.00;96046.09;5010905;28;20050;-80
2022/06/01 04:51:38;;;;;;;6.47;3.20;;;;;;;11.27;100.00;96046.56;5015739;28;20018;-80
2022/06/01 04:54:07;;;;;;;8.17;3.67;;;;;;;11.29;100.00;96039.31;5018511;28;20065;-80
2022/06/01 04:56:33;;;;;;;5.50;3.10;;;;;;;11.43;100.00;96040.41;5032291;28;20040;-80
2022/06/01 04:58:59;;;;;;;5.63;3.27;;;;;;;11.48;100.00;96036.28;5041686;28;20025;-80
2022/06/01 05:01:26;;;;;;;5.87;3.40;;;;;;;11.71;100.00;96025.84;5024150;28;20048;-81
2022/06/01 05:03:51;;;;;;;6.17;3.33;;;;;;;11.79;100.00;96032.88;5030664;28;20109;-79
2022/06/01 05:06:17;;;;;;;8.53;3.30;;;;;;;11.89;100.00;96033.53;5021396;28;20068;-80
2022/06/01 05:08:43;;;;;;;8.07;3.33;;;;;;;12.08;100.00;96020.91;5027415;28;20032;-79
2022/06/01 05:11:09;;;;;;;6.47;3.30;;;;;;;12.33;100.00;96025.03;5003513;28;20041;-79
2022/06/01 05:13:35;;;;;;;6.73;3.33;;;;;;;12.45;100.00;96023.63;5004882;28;20037;-81
2022/06/01 05:16:01;;;;;;;6.73;3.30;;;;;;;12.46;100.00;96025.28;5006812;28;20037;-80
2022/06/01 05:18:27;;;;;;;7.97;3.60;;;;;;;12.56;100.00;96024.22;5009545;28;20133;-79
2022/06/01 05:20:54;;;;;;;6.23;3.10;;;;;;;12.82;100.00;96026.50;5012905;28;20022;-80
2022/06/01 05:23:21;;;;;;;7.37;3.43;;;;;;;13.07;100.00;96013.88;5030887;28;20033;-79
2022/06/01 05:25:48;;;;;;;7.40;3.77;;;;;;;13.18;100.00;96010.81;5010826;28;20034;-79
2022/06/01 05:28:18;;;;;;;7.17;3.23;;;;;;;13.14;100.00;96018.25;5009020;28;20041;-79
2022/06/01 05:30:44;;;;;;;6.17;2.90;;;;;;;13.49;100.00;96015.94;5013556;28;20040;-79
2022/06/01 05:33:10;;;;;;;7.07;2.93;;;;;;;13.75;100.00;96018.13;5014104;28;20745;-79
2022/06/01 05:35:36;;;;;;;7.13;2.90;;;;;;;14.10;100.00;96010.38;5027534;28;20706;-79
2022/06/01 05:38:02;;;;;;;6.07;3.00;;;;;;;14.32;100.00;96016.53;5021270;28;20053;-79
2022/06/01 05:40:30;;;;;;;7.73;3.17;;;;;;;14.42;100.00;96010.91;5009365;28;20034;-79
2022/06/01 05:42:59;;;;;;;8.03;3.10;;;;;;;14.13;100.00;96016.13;5011304;28;20064;-79
2022/06/01 05:45:26;;;;;;;5.17;2.90;;;;;;;14.55;100.00;96006.63;5034096;28;20468;-79
2022/06/01 05:47:52;;;;;;;8.93;2.80;;;;;;;14.38;100.00;96007.81;5026127;28;20072;-80
2022/06/01 05:50:17;;;;;;;4.87;2.77;;;;;;;14.85;96.91;96004.66;5032105;28;20085;-80
2022/06/01 05:52:43;;;;;;;4.80;2.23;;;;;;;15.04;94.15;96000.50;5026650;28;20049;-80
2022/06/01 05:55:11;;;;;;;6.07;2.63;;;;;;;15.07;94.22;96004.59;5036044;28;20088;-79
2022/06/01 05:57:37;;;;;;;6.50;2.50;;;;;;;15.80;87.68;95999.75;5028112;28;20034;-79
2022/06/01 06:00:05;;;;;;;4.50;2.13;;;;;;;16.04;82.39;95995.75;5015276;28;20026;-79
2022/06/01 06:02:40;;;;;;;4.33;2.00;;;;;;;16.18;78.49;95996.63;5015966;28;20068;-80
2022/06/01 06:07:51;;;;;;;4.03;2.03;;;;;;;16.54;75.20;96001.59;5008312;28;20037;-80
2022/06/01 06:10:17;;;;;;;5.07;2.17;;;;;;;16.62;75.03;96003.22;5015332;28;20107;-80
2022/06/01 06:12:43;;;;;;;4.70;2.40;;;;;;;17.08;72.55;96005.13;5034440;28;20029;-80
2022/06/01 06:15:09;;;;;;;10.23;3.57;;;;;;;17.63;70.93;96006.44;5033861;28;20036;-80
2022/06/01 06:17:35;;;;;;;4.60;2.23;;;;;;;17.42;72.86;96004.06;5025839;28;20034;-80
2022/06/01 06:20:01;;;;;;;5.90;2.30;;;;;;;17.58;69.97;96003.59;5016764;28;20107;-80
2022/06/01 06:22:27;;;;;;;3.27;1.90;;;;;;;18.08;68.41;95997.75;5040447;28;20087;-80
2022/06/01 06:24:52;;;;;;;5.40;2.33;;;;;;;18.28;66.40;95997.66;5008149;28;20030;-80
2022/06/01 06:27:18;;;;;;;4.22;2.08;;;;;;;18.45;58.94;96004.09;5019103;28;20029;-80
2022/06/01 06:29:44;;;;;;;3.58;1.67;;;;;;;18.85;56.92;96009.19;5041570;28;20033;-80
2022/06/01 06:32:09;;;;;;;5.65;1.98;;;;;;;19.10;60.31;96011.03;5010108;28;20049;-80
2022/06/01 06:34:35;;;;;;;6.30;2.00;;;;;;;19.66;59.30;96010.13;5025210;28;20040;-80
2022/06/01 06:37:01;;;;;;;3.65;1.98;;;;;;;19.75;57.73;96014.94;5027059;28;20103;-80
2022/06/01 06:39:26;;;;;;;3.92;2.15;;;;;;;19.90;59.42;96011.09;5032698;28;20060;-80
2022/06/01 06:41:52;;;;;;;4.65;2.03;;;;;;;19.82;55.73;96012.22;5032226;28;20045;-80
2022/06/01 06:44:17;;;;;;;2.35;1.50;;;;;;;19.76;53.78;96015.75;5012326;28;20038;-80
2022/06/01 06:46:44;;;;;;;3.35;1.60;;;;;;;19.91;53.63;96008.19;5021978;28;20036;-82
2022/06/01 06:49:10;;;;;;;3.60;2.00;;;;;;;20.31;53.58;96002.34;5036542;28;20431;-80
2022/06/01 06:51:36;;;;;;;3.97;1.77;;;;;;;20.46;49.65;96002.75;4997035;28;20033;-81
2022/06/01 06:54:02;;;;;;;3.75;1.92;;;;;;;20.19;49.33;96006.84;5019502;28;20037;-80
2022/06/01 06:56:28;;;;;;;5.97;1.52;;;;;;;20.60;48.98;96005.28;5004837;28;20042;-80
2022/06/01 06:58:54;;;;;;;6.97;1.98;;;;;;;20.93;48.62;96005.59;5003302;28;20068;-80
2022/06/01 07:01:19;;;;;;;3.47;1.58;;;;;;;21.50;47.08;96004.28;5023226;28;20041;-80
2022/06/01 07:03:45;;;;;;;4.05;2.00;;;;;;;21.04;45.79;96005.84;5028577;28;20036;-80
2022/06/01 07:06:12;;;;;;;4.28;1.73;;;;;;;21.19;47.18;95998.16;5004805;28;20044;-81
2022/06/01 07:08:41;;;;;;;5.25;2.53;;;;;;;21.69;54.60;95991.53;5021177;28;20037;-80
2022/06/01 07:11:07;;;;;;;6.75;2.75;;;;;;;22.77;52.20;95990.75;5006882;28;20042;-81
2022/06/01 07:13:35;;;;;;;3.70;1.70;;;;;;;22.85;48.45;95994.88;5024917;28;20114;-78
2022/06/01 07:16:04;;;;;;;5.20;1.80;;;;;;;22.76;48.40;95988.28;5029116;28;20061;-79
2022/06/01 07:18:30;;;;;;;4.32;2.13;;;;;;;22.31;48.01;95992.59;5022268;28;20037;-78
2022/06/01 07:20:57;;;;;;;4.40;1.63;;;;;;;22.19;49.19;95996.34;5027149;28;20033;-79
2022/06/01 07:23:25;;;;;;;2.63;1.70;;;;;;;22.75;48.49;95987.47;5014988;28;20034;-79
2022/06/01 07:25:52;;;;;;;3.28;1.75;;;;;;;23.29;44.99;95997.75;5021598;28;20018;-79
2022/06/01 07:28:21;;;;;;;3.40;1.67;;;;;;;24.04;42.02;95988.31;5022082;28;20093;-79
2022/06/01 07:30:49;;;;;;;3.17;1.73;;;;;;;24.96;40.71;95992.00;5023755;28;20033;-79
2022/06/01 07:33:15;;;;;;;4.60;1.65;;;;;;;24.23;41.04;95984.25;5000086;28;20026;-80
2022/06/01 07:35:41;;;;;;;3.10;1.48;;;;;;;24.10;39.90;95992.72;5024174;28;20019;-79
2022/06/01 07:43:38;;;;;;;5.43;1.40;;;;;;;24.12;37.73;95998.66;5018578;28;20499;-79
2022/06/01 07:46:04;;;;;;;4.57;1.45;;;;;;;24.53;37.95;95995.63;4998117;28;20077;-79
2022/06/01 07:48:30;;;;;;;6.80;1.50;;;;;;;24.37;37.46;95998.13;5000010;28;20057;-79
2022/06/01 07:50:55;;;;;;;2.28;1.30;;;;;;;23.95;37.22;96004.09;5017103;28;20045;-79
2022/06/01 07:53:21;;;;;;;3.80;1.23;;;;;;;24.34;35.73;95992.44;4982487;28;20025;-79
2022/06/01 07:55:47;;;;;;;3.20;1.55;;;;;;;24.35;36.47;95997.56;5004845;28;20041;-79
2022/06/01 07:58:13;;;;;;;4.15;2.00;;;;;;;24.44;36.60;96000.63;5020768;28;20049;-79
2022/06/01 08:00:39;;;;;;;3.88;1.40;;;;;;;24.56;37.52;96001.31;4999913;28;20042;-80
2022/06/01 08:03:10;;;;;;;3.58;1.70;;;;;;;23.92;37.65;95999.22;4999367;28;20025;-79
2022/06/01 08:05:36;;;;;;;5.88;2.03;;;;;;;24.30;37.11;96004.75;5019819;28;20219;-79
2022/06/01 08:08:02;;;;;;;4.75;1.77;;;;;;;24.19;37.33;96010.00;5011282;28;20544;-79
2022/06/01 08:10:27;;;;;;;2.63;1.60;;;;;;;23.97;37.93;96006.50;5024847;28;20426;-79
2022/06/01 08:13:09;;;;;;;3.88;1.40;;;;;;;24.52;37.10;96005.59;5021831;28;20042;-79
2022/06/01 08:15:56;;;;;;;4.15;1.80;;;;;;;24.25;37.11;96004.72;4994646;28;20041;-79
2022/06/01 08:18:24;;;;;;;3.58;1.35;;;;;;;24.07;36.83;96008.50;5011937;28;20064;-79
2022/06/01 08:20:51;;;;;;;3.60;1.40;;;;;;;24.77;36.36;95994.25;5005844;28;20030;-78
2022/06/01 08:23:17;;;;;;;5.00;2.17;;;;;;;24.97;36.28;96004.38;5025229;28;20041;-79
2022/06/01 08:25:44;;;;;;;4.10;1.67;;;;;;;24.89;36.44;96002.16;5023513;28;20074;-79
2022/06/01 08:28:10;;;;;;;1.70;1.02;;;;;;;24.68;35.50;95996.59;5007684;28;20038;-78
2022/06/01 08:30:38;;;;;;;4.70;1.70;;;;;;;24.67;35.94;96007.59;4998066;28;20049;-79
2022/06/01 08:33:05;;;;;;;3.10;1.40;;;;;;;25.28;37.64;95999.28;5022275;28;20056;-80
2022/06/01 08:35:37;;;;;;;5.63;1.42;;;;;;;24.59;35.74;95998.13;4998703;28;20057;-79
2022/06/01 08:38:03;;;;;;;3.45;1.42;;;;;;;25.13;35.03;95997.28;5016023;28;20479;-80
2022/06/01 08:40:39;;;;;;;3.65;1.42;;;;;;;24.61;34.44;96000.53;5012969;28;20034;-78
2022/06/01 08:43:09;;;;;;;2.15;1.30;;;;;;;25.59;33.44;96000.31;5015856;28;20091;-77
2022/06/01 08:45:36;;;;;;;3.72;1.50;;;;;;;25.94;33.33;95999.72;5002130;28;20029;-78
2022/06/01 08:48:03;;;;;;;3.30;1.30;;;;;;;24.79;33.75;95996.69;5011825;28;20137;-79
2022/06/01 08:50:32;;;;;;;3.85;1.85;;;;;;;25.14;34.21;96005.09;5005999;28;20162;-79
2022/06/01 08:53:05;;;;;;;4.18;1.40;;;;;;;25.29;33.02;96001.72;5011314;28;20027;-78
2022/06/01 08:56:01;;;;;;;2.47;1.40;;;;;;;26.28;32.03;95999.31;5026718;28;20516;-79
2022/06/01 08:58:38;;;;;;;4.90;1.48;;;;;;;26.12;29.66;96000.31;4972373;28;20042;-79
2022/06/01 09:01:07;;;;;;;2.80;0.80;;;;;;;26.26;29.07;96004.16;5020461;28;20497;-78
2022/06/01 09:03:48;;;;;;;2.30;1.05;;;;;;;24.98;32.42;95997.13;5010734;28;20364;-79
2022/06/01 09:06:29;;;;;;;3.20;1.10;;;;;;;23.25;32.67;96000.13;4998847;28;20113;-78
2022/06/01 09:09:02;;;;;;;2.30;0.90;;;;;;;24.34;30.39;96000.50;5005120;28;20398;-79
2022/06/01 09:11:34;;;;;;;2.13;0.80;;;;;;;25.05;28.95;96005.78;4987481;28;20034;-78
2022/06/01 09:14:11;;;;;;;2.03;1.17;;;;;;;25.43;30.08;96010.16;5004625;28;20030;-79
2022/06/01 09:16:40;;;;;;;3.33;1.42;;;;;;;25.37;28.03;96019.25;5002776;28;20591;-79
2022/06/01 09:19:11;;;;;;;3.15;0.90;;;;;;;25.12;30.38;96007.25;5011301;28;20119;-78
2022/06/01 09:24:33;;;;;;;3.47;1.10;;;;;;;23.89;35.22;96010.44;5033325;28;20029;-79
2022/06/01 09:27:05;;;;;;;2.53;1.20;;;;;;;24.11;33.84;96020.38;5008079;28;20073;-79
2022/06/01 09:29:35;;;;;;;;;;;;;;;24.07;32.77;96020.06;5011340;28;20113;-79
2022/06/01 09:32:07;;;;;;;1.83;1.02;;;;;;;22.73;33.88;96024.41;5012846;28;20126;-78
2022/06/01 09:34:48;;;;;;;3.00;1.57;;;;;;;22.99;33.11;96028.41;4994969;28;20503;-79
2022/06/01 09:37:23;;;;;;;2.40;1.10;;;;;;;25.16;30.43;96019.13;5003721;28;20034;-79
2022/06/01 09:39:59;;;;;;;5.40;1.23;;;;;;;25.82;29.08;96029.56;5020804;28;20149;-79
2022/06/01 09:42:40;;;;;;;2.42;1.20;;;;;;;25.73;28.96;96022.22;5011444;28;20581;-79
2022/06/01 09:45:24;;;;;;;5.22;0.90;;;;;;;23.84;31.00;96018.41;5023030;28;20113;-79
2022/06/01 09:47:51;;;;;;;2.97;0.85;;;;;;;23.94;29.27;96013.22;5021262;28;20101;-79
2022/06/01 09:50:30;;;;;;;1.50;0.80;;;;;;;24.96;27.99;96002.78;5021803;28;20435;-79
2022/06/01 09:53:11;;;;;;;1.85;1.00;;;;;;;25.13;27.44;95997.28;5013995;28;20030;-78
2022/06/01 09:55:59;;;;;;;2.10;1.05;;;;;;;24.81;28.49;95989.97;5005510;28;20030;-80
2022/06/01 10:06:56;;;;;;;2.42;0.70;;;;;;;25.46;27.10;96001.56;5023343;28;20026;-79
2022/06/01 10:09:28;;;;;;;4.68;1.20;;;;;;;25.63;27.14;96012.97;5009908;28;20053;-79
2022/06/01 10:11:55;;;;;;;3.08;0.90;;;;;;;24.06;28.86;96014.97;5028176;28;20040;-79
2022/06/01 10:14:32;;;;;;;2.65;1.20;;;;;;;24.91;29.34;96000.81;5030838;28;20046;-79
2022/06/01 10:17:40;;;;;;;1.55;1.00;;;;;;;26.11;28.95;96004.91;5023560;28;20044;-79
2022/06/01 10:20:21;;;;;;;3.88;1.70;;;;;;;25.56;28.90;96009.72;4963376;28;20034;-79
2022/06/01 10:23:09;;;;;;;2.22;0.90;;;;;;;25.42;28.65;96005.03;5038232;28;20169;-79
2022/06/01 10:25:38;;;;;;;3.40;1.10;;;;;;;24.46;29.03;96006.59;5009465;28;20044;-79
2022/06/01 10:28:10;;;;;;;5.38;1.20;;;;;;;23.91;32.17;96010.19;4995150;28;20025;-79
2022/06/01 10:30:39;;;;;;;2.75;1.13;;;;;;;25.11;30.08;96005.59;5029488;28;20041;-79
2022/06/01 10:33:18;;;;;;;2.10;1.00;;;;;;;25.95;29.80;96009.41;4998870;28;20045;-78
2022/06/01 10:35:52;;;;;;;3.85;1.77;;;;;;;25.94;31.19;95991.63;5022247;28;20541;-78
2022/06/01 10:38:18;;;;;;;2.92;1.00;;;;;;;24.68;30.96;95993.91;5031791;28;20033;-78
2022/06/01 10:40:56;;;;;;;2.55;0.90;;;;;;;24.08;32.47;96000.22;5025292;28;20029;-78
2022/06/01 10:43:31;;;;;;;5.13;1.40;;;;;;;23.27;32.50;96008.75;5011706;28;20072;-78
2022/06/01 10:46:06;;;;;;;5.00;2.00;;;;;;;24.43;31.35;95999.84;5010499;28;20033;-78
2022/06/01 10:48:42;;;;;;;3.72;1.17;;;;;;;24.23;33.63;96002.25;5011047;28;20048;-79
2022/06/01 10:51:08;;;;;;;2.67;1.33;;;;;;;23.99;32.58;96004.41;5004053;28;20169;-78
2022/06/01 10:53:51;;;;;;;2.92;1.20;;;;;;;25.26;32.62;96002.22;5016020;28;20542;-78
2022/06/01 10:56:20;;;;;;;6.95;3.35;;;;;;;26.03;30.54;96011.63;4994247;28;20622;-78
2022/06/01 10:58:49;;;;;;;6.05;3.13;;;;;;;26.60;31.87;95998.38;5010399;28;20030;-79
2022/06/01 11:01:26;;;;;;;11.38;4.25;;;;;;;25.27;32.81;96009.22;5013301;28;20127;-78
2022/06/01 11:04:01;;;;;;;7.82;5.35;;;;;;;25.58;31.92;96012.94;5021826;28;20071;-79
2022/06/01 11:06:32;;;;;;;2.70;1.40;;;;;;;24.95;33.55;96003.84;5010261;28;20036;-78
2022/06/01 11:09:07;;;;;;;3.35;1.45;;;;;;;24.09;34.50;96007.22;5012600;28;20115;-79
2022/06/01 11:11:45;;;;;;;2.08;0.95;;;;;;;25.88;32.08;96002.66;5012558;28;20043;-79
2022/06/01 11:14:26;;;;;;;3.45;1.38;;;;;;;24.87;33.18;96015.84;4995658;28;20038;-78
2022/06/01 11:17:09;;;;;;;3.88;2.50;;;;;;;24.94;32.39;95999.50;5004025;28;20038;-80
2022/06/01 11:19:53;;;;;;;4.82;1.95;;;;;;;26.04;32.26;96007.03;4996690;28;20095;-79
2022/06/01 11:22:25;;;;;;;5.60;2.65;;;;;;;25.86;31.98;96003.72;5004652;28;20037;-78
2022/06/01 11:25:25;;;;;;;3.07;1.70;;;;;;;26.40;31.82;95996.41;5024956;28;20037;-79
2022/06/01 11:28:07;;;;;;;8.45;5.60;;;;;;;26.07;32.15;95998.44;4995539;28;20473;-79
2022/06/01 11:30:45;;;;;;;5.70;2.75;;;;;;;26.30;33.28;95999.88;5006091;28;20673;-78
2022/06/01 11:33:24;;;;;;;3.03;1.70;;;;;;;26.90;33.24;95998.41;5022031;28;20491;-79
2022/06/01 11:35:59;;;;;;;3.58;1.80;;;;;;;27.33;31.30;95990.88;5018577;28;20026;-79
2022/06/01 11:38:30;;;;;;;2.25;1.30;;;;;;;28.53;28.94;95974.84;5013933;28;20033;-79
2022/06/01 11:41:03;;;;;;;4.07;1.67;;;;;;;26.88;32.25;95988.94;5013856;28;20042;-79
2022/06/01 11:43:31;;;;;;;3.20;1.80;;;;;;;26.75;30.58;95982.19;5016753;28;20044;-79
2022/06/01 11:46:13;;;;;;;11.90;9.23;;;;;;;26.93;30.19;95987.06;5013299;28;20044;-79
2022/06/01 11:48:47;;;;;;;3.58;1.55;;;;;;;27.11;28.91;95982.22;5016167;28;20029;-80
2022/06/01 11:51:16;;;;;;;4.07;1.52;;;;;;;26.54;30.18;95976.75;5009896;28;20037;-79
2022/06/01 11:53:45;;;;;;;3.35;1.40;;;;;;;27.07;31.78;95973.84;5002989;28;20026;-79
2022/06/01 11:56:45;;;;;;;9.55;5.63;;;;;;;27.30;31.01;95979.78;5014593;28;20056;-79
2022/06/01 11:59:30;;;;;;;3.00;1.58;;;;;;;25.97;31.55;95991.09;5019960;28;20065;-79
2022/06/01 12:02:47;;;;;;;4.80;1.48;;;;;;;25.78;30.29;95988.00;5032956;28;20033;-79
2022/06/01 12:05:33;;;;;;;2.70;1.20;;;;;;;25.53;31.66;95998.66;5006953;28;20515;-79
2022/06/01 12:08:21;;;;;;;3.05;1.20;;;;;;;26.54;30.80;95984.06;5016166;28;20192;-80
2022/06/01 12:10:57;;;;;;;3.38;1.20;;;;;;;25.78;30.92;95993.41;5009498;28;20038;-78
2022/06/01 12:13:30;;;;;;;2.22;1.38;;;;;;;26.23;30.50;95980.44;5011927;28;20445;-79
2022/06/01 12:16:20;;;;;;;3.72;1.13;;;;;;;27.03;29.10;95972.78;5027889;28;20064;-78